sensor_id;sensor_type;location;lat;lon;timestamp;pressure;altitude;pressure_sealevel;temperature;humidity
74675;BME280;63200;48.810;12.352;2023-04-24T00:02:00;96556.81;;;10.55;81.64
74675;BME280;63200;48.810;12.352;2023-04-24T00:04:26;96559.53;;;10.55;81.70
74675;BME280;63200;48.810;12.352;2023-04-24T00:06:51;96553.00;;;10.56;81.64
74675;BME280;63200;48.810;12.352;2023-04-24T00:09:22;96546.28;;;10.53;82.03
74675;BME280;63200;48.810;12.352;2023-04-24T00:11:47;96549.00;;;10.53;81.95
74675;BME280;63200;48.810;12.352;2023-04-24T00:14:12;96548.50;;;10.51;81.88
74675;BME280;63200;48.810;12.352;2023-04-24T00:16:38;96543.56;;;10.53;82.05
74675;BME280;63200;48.810;12.352;2023-04-24T00:19:03;96539.25;;;10.52;82.06
74675;BME280;63200;48.810;12.352;2023-04-24T00:21:31;96531.69;;;10.49;82.37
74675;BME280;63200;48.810;12.352;2023-04-24T00:23:58;96530.59;;;10.50;82.56
74675;BME280;63200;48.810;12.352;2023-04-24T00:26:23;96533.63;;;10.48;82.44
74675;BME280;63200;48.810;12.352;2023-04-24T00:28:48;96527.41;;;10.48;82.62
74675;BME280;63200;48.810;12.352;2023-04-24T00:31:14;96526.28;;;10.49;82.46
74675;BME280;63200;48.810;12.352;2023-04-24T00:33:39;96527.41;;;10.48;82.46
74675;BME280;63200;48.810;12.352;2023-04-24T00:36:05;96476.03;;;10.15;82.37
74675;BME280;63200;48.810;12.352;2023-04-24T00:38:30;96521.47;;;10.46;82.83
74675;BME280;63200;48.810;12.352;2023-04-24T00:40:56;96521.66;;;10.49;82.82
74675;BME280;63200;48.810;12.352;2023-04-24T00:43:21;96512.97;;;10.39;82.47
74675;BME280;63200;48.810;12.352;2023-04-24T00:45:47;96529.50;;;10.51;82.38
74675;BME280;63200;48.810;12.352;2023-04-24T00:48:12;96523.97;;;10.42;82.66
74675;BME280;63200;48.810;12.352;2023-04-24T00:50:38;96508.34;;;10.25;82.85
74675;BME280;63200;48.810;12.352;2023-04-24T00:53:04;96517.66;;;10.33;83.17
74675;BME280;63200;48.810;12.352;2023-04-24T00:55:30;96516.28;;;10.36;83.15
74675;BME280;63200;48.810;12.352;2023-04-24T00:57:55;96518.06;;;10.40;83.14
74675;BME280;63200;48.810;12.352;2023-04-24T01:00:21;96515.97;;;10.37;83.01
74675;BME280;63200;48.810;12.352;2023-04-24T01:02:47;96512.47;;;10.37;82.81
74675;BME280;63200;48.810;12.352;2023-04-24T01:05:14;96513.13;;;10.42;82.73
74675;BME280;63200;48.810;12.352;2023-04-24T01:07:41;96513.44;;;10.41;82.90
74675;BME280;63200;48.810;12.352;2023-04-24T01:10:11;96516.47;;;10.39;82.65
74675;BME280;63200;48.810;12.352;2023-04-24T01:12:37;96518.06;;;10.40;82.63
74675;BME280;63200;48.810;12.352;2023-04-24T01:15:02;96511.84;;;10.40;82.89
74675;BME280;63200;48.810;12.352;2023-04-24T01:17:29;96480.63;;;10.14;83.00
74675;BME280;63200;48.810;12.352;2023-04-24T01:19:54;96489.91;;;10.13;83.26
74675;BME280;63200;48.810;12.352;2023-04-24T01:22:22;96512.53;;;10.31;83.45
74675;BME280;63200;48.810;12.352;2023-04-24T01:24:47;96508.03;;;10.27;83.31
74675;BME280;63200;48.810;12.352;2023-04-24T01:27:13;96511.84;;;10.26;83.48
74675;BME280;63200;48.810;12.352;2023-04-24T01:29:39;96486.50;;;10.08;83.69
74675;BME280;63200;48.810;12.352;2023-04-24T01:32:05;96520.38;;;10.33;83.25
74675;BME280;63200;48.810;12.352;2023-04-24T01:34:31;96459.31;;;9.99;82.97
74675;BME280;63200;48.810;12.352;2023-04-24T01:36:57;96512.78;;;10.35;83.09
74675;BME280;63200;48.810;12.352;2023-04-24T01:39:22;96513.84;;;10.34;82.95
74675;BME280;63200;48.810;12.352;2023-04-24T01:41:50;96514.38;;;10.36;82.75
74675;BME280;63200;48.810;12.352;2023-04-24T01:44:16;96462.63;;;9.96;82.80
74675;BME280;63200;48.810;12.352;2023-04-24T01:46:42;96474.75;;;10.12;82.80
74675;BME280;63200;48.810;12.352;2023-04-24T01:49:07;96473.16;;;9.97;82.72
74675;BME280;63200;48.810;12.352;2023-04-24T01:51:33;96518.19;;;10.35;82.57
74675;BME280;63200;48.810;12.352;2023-04-24T01:53:58;96515.06;;;10.28;82.71
74675;BME280;63200;48.810;12.352;2023-04-24T01:56:24;96511.13;;;10.34;82.52
74675;BME280;63200;48.810;12.352;2023-04-24T01:58:50;96515.25;;;10.31;82.31
74675;BME280;63200;48.810;12.352;2023-04-24T02:01:19;96507.13;;;10.31;82.20
74675;BME280;63200;48.810;12.352;2023-04-24T02:03:44;96510.25;;;10.25;82.50
74675;BME280;63200;48.810;12.352;2023-04-24T02:06:10;96516.50;;;10.25;82.55
74675;BME280;63200;48.810;12.352;2023-04-24T02:08:35;96511.56;;;10.27;82.75
74675;BME280;63200;48.810;12.352;2023-04-24T02:11:00;96465.22;;;10.01;82.57
74675;BME280;63200;48.810;12.352;2023-04-24T02:13:27;96457.69;;;9.98;82.60
74675;BME280;63200;48.810;12.352;2023-04-24T02:15:52;96499.09;;;10.26;82.32
74675;BME280;63200;48.810;12.352;2023-04-24T02:18:18;96494.72;;;10.16;82.36
74675;BME280;63200;48.810;12.352;2023-04-24T02:20:43;96491.56;;;10.23;82.65
74675;BME280;63200;48.810;12.352;2023-04-24T02:23:08;96493.97;;;10.25;82.25
74675;BME280;63200;48.810;12.352;2023-04-24T02:25:34;96480.09;;;10.26;82.09
74675;BME280;63200;48.810;12.352;2023-04-24T02:27:59;96485.22;;;10.28;82.10
74675;BME280;63200;48.810;12.352;2023-04-24T02:30:25;96483.63;;;10.27;82.10
74675;BME280;63200;48.810;12.352;2023-04-24T02:32:50;96483.63;;;10.27;81.87
74675;BME280;63200;48.810;12.352;2023-04-24T02:35:16;96480.41;;;10.25;82.05
74675;BME280;63200;48.810;12.352;2023-04-24T02:37:41;96474.19;;;10.24;82.15
74675;BME280;63200;48.810;12.352;2023-04-24T02:40:07;96461.19;;;10.12;82.45
74675;BME280;63200;48.810;12.352;2023-04-24T02:42:33;96468.69;;;10.15;81.96
74675;BME280;63200;48.810;12.352;2023-04-24T02:44:58;96467.09;;;10.14;82.02
74675;BME280;63200;48.810;12.352;2023-04-24T02:47:23;96465.78;;;10.12;82.28
74675;BME280;63200;48.810;12.352;2023-04-24T02:49:49;96459.06;;;10.09;82.41
74675;BME280;63200;48.810;12.352;2023-04-24T02:52:14;96414.59;;;9.74;82.38
74675;BME280;63200;48.810;12.352;2023-04-24T02:54:39;96457.75;;;10.07;82.16
74675;BME280;63200;48.810;12.352;2023-04-24T02:57:05;96453.56;;;10.00;82.43
74675;BME280;63200;48.810;12.352;2023-04-24T02:59:31;96455.66;;;10.04;82.45
74675;BME280;63200;48.810;12.352;2023-04-24T03:01:57;96456.28;;;10.00;82.52
74675;BME280;63200;48.810;12.352;2023-04-24T03:04:22;96456.28;;;10.00;82.36
74675;BME280;63200;48.810;12.352;2023-04-24T03:06:48;96447.16;;;9.96;82.60
74675;BME280;63200;48.810;12.352;2023-04-24T03:09:13;96444.78;;;9.95;82.36
74675;BME280;63200;48.810;12.352;2023-04-24T03:11:38;96447.47;;;9.95;82.57
74675;BME280;63200;48.810;12.352;2023-04-24T03:14:04;96450.34;;;9.98;82.52
74675;BME280;63200;48.810;12.352;2023-04-24T03:16:29;96451.78;;;9.96;82.50
74675;BME280;63200;48.810;12.352;2023-04-24T03:18:55;96456.19;;;9.92;82.46
74675;BME280;63200;48.810;12.352;2023-04-24T03:21:20;96454.53;;;9.82;82.35
74675;BME280;63200;48.810;12.352;2023-04-24T03:23:46;96469.09;;;9.72;82.75
74675;BME280;63200;48.810;12.352;2023-04-24T03:26:11;96460.69;;;9.60;82.96
74675;BME280;63200;48.810;12.352;2023-04-24T03:28:36;96459.59;;;9.61;83.24
74675;BME280;63200;48.810;12.352;2023-04-24T03:31:03;96424.50;;;9.28;83.29
74675;BME280;63200;48.810;12.352;2023-04-24T03:33:28;96425.69;;;9.22;83.53
74675;BME280;63200;48.810;12.352;2023-04-24T03:35:54;96470.84;;;9.54;83.28
74675;BME280;63200;48.810;12.352;2023-04-24T03:38:19;96473.03;;;9.66;83.29
74675;BME280;63200;48.810;12.352;2023-04-24T03:40:44;96469.03;;;9.63;83.01
74675;BME280;63200;48.810;12.352;2023-04-24T03:43:10;96472.25;;;9.52;83.43
74675;BME280;63200;48.810;12.352;2023-04-24T03:45:35;96473.34;;;9.64;83.47
74675;BME280;63200;48.810;12.352;2023-04-24T03:48:00;96477.03;;;9.55;82.90
74675;BME280;63200;48.810;12.352;2023-04-24T03:50:26;96470.63;;;9.50;83.28
74675;BME280;63200;48.810;12.352;2023-04-24T03:52:51;96471.81;;;9.44;83.67
74675;BME280;63200;48.810;12.352;2023-04-24T03:55:17;96455.81;;;9.34;83.80
74675;BME280;63200;48.810;12.352;2023-04-24T03:57:42;96473.75;;;9.44;83.50
74675;BME280;63200;48.810;12.352;2023-04-24T04:00:08;96474.44;;;9.49;83.57
74675;BME280;63200;48.810;12.352;2023-04-24T04:02:34;96476.66;;;9.47;83.23
74675;BME280;63200;48.810;12.352;2023-04-24T04:04:59;96428.81;;;9.15;83.59
74675;BME280;63200;48.810;12.352;2023-04-24T04:07:24;96469.44;;;9.43;83.44
74675;BME280;63200;48.810;12.352;2023-04-24T04:09:50;96477.75;;;9.46;83.58
74675;BME280;63200;48.810;12.352;2023-04-24T04:12:16;96481.97;;;9.53;83.33
74675;BME280;63200;48.810;12.352;2023-04-24T04:14:41;96484.59;;;9.44;83.47
74675;BME280;63200;48.810;12.352;2023-04-24T04:17:06;96488.81;;;9.50;83.18
74675;BME280;63200;48.810;12.352;2023-04-24T04:19:32;96479.16;;;9.44;83.18
74675;BME280;63200;48.810;12.352;2023-04-24T04:21:57;96490.78;;;9.44;82.88
74675;BME280;63200;48.810;12.352;2023-04-24T04:24:23;96477.25;;;9.44;83.02
74675;BME280;63200;48.810;12.352;2023-04-24T04:26:49;96487.00;;;9.59;82.88
74675;BME280;63200;48.810;12.352;2023-04-24T04:29:16;96488.09;;;9.58;82.53
74675;BME280;63200;48.810;12.352;2023-04-24T04:31:42;96449.47;;;9.25;82.72
74675;BME280;63200;48.810;12.352;2023-04-24T04:34:08;96485.69;;;9.57;82.40
74675;BME280;63200;48.810;12.352;2023-04-24T04:36:34;96492.59;;;9.63;82.45
74675;BME280;63200;48.810;12.352;2023-04-24T04:39:02;96486.59;;;9.66;82.15
74675;BME280;63200;48.810;12.352;2023-04-24T04:41:28;96486.78;;;9.56;81.82
74675;BME280;63200;48.810;12.352;2023-04-24T04:43:53;96492.00;;;9.52;82.30
74675;BME280;63200;48.810;12.352;2023-04-24T04:46:18;96497.53;;;9.61;82.13
74675;BME280;63200;48.810;12.352;2023-04-24T04:48:44;96489.38;;;9.61;82.11
74675;BME280;63200;48.810;12.352;2023-04-24T04:51:09;96498.31;;;9.61;81.85
74675;BME280;63200;48.810;12.352;2023-04-24T04:53:34;96498.31;;;9.61;81.75
74675;BME280;63200;48.810;12.352;2023-04-24T04:56:00;96496.81;;;9.69;81.81
74675;BME280;63200;48.810;12.352;2023-04-24T04:58:25;96499.13;;;9.62;81.62
74675;BME280;63200;48.810;12.352;2023-04-24T05:00:51;96404.84;;;8.94;81.36
74675;BME280;63200;48.810;12.352;2023-04-24T05:03:17;96495.13;;;9.59;81.46
74675;BME280;63200;48.810;12.352;2023-04-24T05:05:42;96493.72;;;9.62;81.39
74675;BME280;63200;48.810;12.352;2023-04-24T05:08:08;96494.72;;;9.66;81.59
74675;BME280;63200;48.810;12.352;2023-04-24T05:10:33;96448.78;;;9.33;81.30
74675;BME280;63200;48.810;12.352;2023-04-24T05:12:59;96499.63;;;9.64;81.60
74675;BME280;63200;48.810;12.352;2023-04-24T05:15:24;96463.91;;;9.48;81.39
74675;BME280;63200;48.810;12.352;2023-04-24T05:17:50;96500.22;;;9.75;81.01
74675;BME280;63200;48.810;12.352;2023-04-24T05:20:15;96496.81;;;9.83;81.03
74675;BME280;63200;48.810;12.352;2023-04-24T05:22:41;96506.63;;;9.79;80.75
74675;BME280;63200;48.810;12.352;2023-04-24T05:25:07;96505.03;;;9.78;80.23
74675;BME280;63200;48.810;12.352;2023-04-24T05:27:32;96516.38;;;9.80;80.22
74675;BME280;63200;48.810;12.352;2023-04-24T05:29:58;96504.00;;;9.88;80.24
74675;BME280;63200;48.810;12.352;2023-04-24T05:32:23;96510.25;;;9.74;80.13
74675;BME280;63200;48.810;12.352;2023-04-24T05:34:48;96515.16;;;9.86;79.90
74675;BME280;63200;48.810;12.352;2023-04-24T05:37:14;96510.16;;;9.79;80.14
74675;BME280;63200;48.810;12.352;2023-04-24T05:39:39;96516.25;;;9.85;80.46
74675;BME280;63200;48.810;12.352;2023-04-24T05:42:06;96509.94;;;9.76;80.16
74675;BME280;63200;48.810;12.352;2023-04-24T05:44:31;96515.47;;;9.84;80.17
74675;BME280;63200;48.810;12.352;2023-04-24T05:46:56;96522.50;;;9.86;79.68
74675;BME280;63200;48.810;12.352;2023-04-24T05:49:22;96527.00;;;9.90;79.76
74675;BME280;63200;48.810;12.352;2023-04-24T05:51:47;96523.28;;;9.86;79.35
74675;BME280;63200;48.810;12.352;2023-04-24T05:54:12;96525.28;;;9.94;79.61
74675;BME280;63200;48.810;12.352;2023-04-24T05:56:38;96521.78;;;9.94;79.71
74675;BME280;63200;48.810;12.352;2023-04-24T05:59:04;96531.91;;;10.02;79.67
74675;BME280;63200;48.810;12.352;2023-04-24T06:01:30;96524.75;;;10.06;79.29
74675;BME280;63200;48.810;12.352;2023-04-24T06:03:56;96536.72;;;10.05;79.14
74675;BME280;63200;48.810;12.352;2023-04-24T06:06:22;96503.22;;;9.73;79.40
74675;BME280;63200;48.810;12.352;2023-04-24T06:08:47;96535.34;;;9.94;79.51
74675;BME280;63200;48.810;12.352;2023-04-24T06:11:12;96533.41;;;10.08;79.59
74675;BME280;63200;48.810;12.352;2023-04-24T06:13:38;96535.41;;;10.03;79.29
74675;BME280;63200;48.810;12.352;2023-04-24T06:16:03;96536.59;;;10.10;79.40
74675;BME280;63200;48.810;12.352;2023-04-24T06:18:28;96544.47;;;9.98;79.30
74675;BME280;63200;48.810;12.352;2023-04-24T06:20:54;96535.31;;;10.08;79.15
74675;BME280;63200;48.810;12.352;2023-04-24T06:23:20;96538.22;;;9.97;79.10
74675;BME280;63200;48.810;12.352;2023-04-24T06:25:45;96541.72;;;10.12;79.37
74675;BME280;63200;48.810;12.352;2023-04-24T06:28:11;96535.13;;;10.04;79.18
74675;BME280;63200;48.810;12.352;2023-04-24T06:30:36;96541.19;;;10.24;78.75
74675;BME280;63200;48.810;12.352;2023-04-24T06:33:01;96545.25;;;10.12;78.24
74675;BME280;63200;48.810;12.352;2023-04-24T06:35:27;96546.03;;;10.27;78.58
74675;BME280;63200;48.810;12.352;2023-04-24T06:37:52;96552.75;;;10.29;78.41
74675;BME280;63200;48.810;12.352;2023-04-24T06:40:18;96541.31;;;10.18;78.00
74675;BME280;63200;48.810;12.352;2023-04-24T06:42:46;96556.81;;;10.04;78.27
74675;BME280;63200;48.810;12.352;2023-04-24T06:45:11;96557.09;;;10.16;78.83
74675;BME280;63200;48.810;12.352;2023-04-24T06:47:36;96551.13;;;10.28;78.38
74675;BME280;63200;48.810;12.352;2023-04-24T06:50:03;96550.94;;;10.39;78.09
74675;BME280;63200;48.810;12.352;2023-04-24T06:52:28;96545.47;;;10.53;77.78
74675;BME280;63200;48.810;12.352;2023-04-24T06:55:01;96541.41;;;10.64;76.62
74675;BME280;63200;48.810;12.352;2023-04-24T06:57:27;96543.94;;;10.60;76.66
74675;BME280;63200;48.810;12.352;2023-04-24T06:59:53;96538.47;;;10.74;76.36
74675;BME280;63200;48.810;12.352;2023-04-24T07:02:18;96542.63;;;10.80;76.38
74675;BME280;63200;48.810;12.352;2023-04-24T07:04:43;96545.22;;;10.86;75.92
74675;BME280;63200;48.810;12.352;2023-04-24T07:07:08;96536.22;;;10.76;75.81
74675;BME280;63200;48.810;12.352;2023-04-24T07:09:38;96545.03;;;10.82;76.31
74675;BME280;63200;48.810;12.352;2023-04-24T07:12:06;96551.94;;;10.88;75.32
74675;BME280;63200;48.810;12.352;2023-04-24T07:14:32;96503.28;;;10.32;76.51
74675;BME280;63200;48.810;12.352;2023-04-24T07:16:58;96550.09;;;10.52;76.91
74675;BME280;63200;48.810;12.352;2023-04-24T07:19:23;96554.91;;;10.78;76.86
74675;BME280;63200;48.810;12.352;2023-04-24T07:21:49;96555.59;;;10.83;75.75
74675;BME280;63200;48.810;12.352;2023-04-24T07:24:14;96550.31;;;10.78;76.62
74675;BME280;63200;48.810;12.352;2023-04-24T07:26:40;96546.09;;;10.95;75.66
74675;BME280;63200;48.810;12.352;2023-04-24T07:29:06;96545.22;;;11.08;74.57
74675;BME280;63200;48.810;12.352;2023-04-24T07:31:32;96499.84;;;10.86;74.25
74675;BME280;63200;48.810;12.352;2023-04-24T07:33:57;96540.50;;;11.23;74.08
74675;BME280;63200;48.810;12.352;2023-04-24T07:36:23;96539.31;;;11.06;74.00
74675;BME280;63200;48.810;12.352;2023-04-24T07:38:49;96547.72;;;11.27;73.67
74675;BME280;63200;48.810;12.352;2023-04-24T07:41:15;96512.75;;;11.34;73.40
74675;BME280;63200;48.810;12.352;2023-04-24T07:43:41;96550.19;;;11.46;73.07
74675;BME280;63200;48.810;12.352;2023-04-24T07:46:08;96544.59;;;11.83;72.71
74675;BME280;63200;48.810;12.352;2023-04-24T07:48:33;96529.81;;;11.66;72.04
74675;BME280;63200;48.810;12.352;2023-04-24T07:50:58;96559.34;;;11.91;71.78
74675;BME280;63200;48.810;12.352;2023-04-24T07:53:24;96559.34;;;11.91;71.54
74675;BME280;63200;48.810;12.352;2023-04-24T07:55:49;96529.81;;;11.66;70.61
74675;BME280;63200;48.810;12.352;2023-04-24T07:58:15;96561.50;;;11.71;71.41
74675;BME280;63200;48.810;12.352;2023-04-24T08:00:40;96570.34;;;11.86;70.75
74675;BME280;63200;48.810;12.352;2023-04-24T08:03:05;96569.31;;;12.04;71.87
74675;BME280;63200;48.810;12.352;2023-04-24T08:05:31;96567.06;;;11.97;71.07
74675;BME280;63200;48.810;12.352;2023-04-24T08:07:56;96569.41;;;11.90;70.05
74675;BME280;63200;48.810;12.352;2023-04-24T08:10:22;96533.72;;;11.92;69.72
74675;BME280;63200;48.810;12.352;2023-04-24T08:12:48;96568.38;;;12.18;71.24
74675;BME280;63200;48.810;12.352;2023-04-24T08:15:14;96560.59;;;11.84;70.07
74675;BME280;63200;48.810;12.352;2023-04-24T08:17:39;96568.31;;;11.60;71.26
74675;BME280;63200;48.810;12.352;2023-04-24T08:20:06;96577.56;;;11.50;71.50
74675;BME280;63200;48.810;12.352;2023-04-24T08:22:35;96570.72;;;11.53;72.39
74675;BME280;63200;48.810;12.352;2023-04-24T08:25:00;96586.03;;;11.48;73.14
74675;BME280;63200;48.810;12.352;2023-04-24T08:27:27;96592.38;;;11.44;74.72
74675;BME280;63200;48.810;12.352;2023-04-24T08:29:57;96583.53;;;11.29;73.69
74675;BME280;63200;48.810;12.352;2023-04-24T08:32:22;96585.22;;;11.48;74.61
74675;BME280;63200;48.810;12.352;2023-04-24T08:34:47;96579.63;;;11.84;73.86
74675;BME280;63200;48.810;12.352;2023-04-24T08:37:13;96576.91;;;11.84;72.17
74675;BME280;63200;48.810;12.352;2023-04-24T08:39:38;96579.91;;;11.74;70.04
74675;BME280;63200;48.810;12.352;2023-04-24T08:42:04;96567.63;;;11.86;71.74
74675;BME280;63200;48.810;12.352;2023-04-24T08:44:33;96553.75;;;11.96;71.29
74675;BME280;63200;48.810;12.352;2023-04-24T08:47:00;96531.06;;;12.00;68.60
74675;BME280;63200;48.810;12.352;2023-04-24T08:49:27;96578.69;;;12.73;68.25
74675;BME280;63200;48.810;12.352;2023-04-24T08:51:53;96573.19;;;13.08;65.94
74675;BME280;63200;48.810;12.352;2023-04-24T08:54:19;96577.38;;;12.88;66.32
74675;BME280;63200;48.810;12.352;2023-04-24T08:56:44;96531.75;;;12.32;66.75
74675;BME280;63200;48.810;12.352;2023-04-24T08:59:11;96580.75;;;12.85;66.90
74675;BME280;63200;48.810;12.352;2023-04-24T09:01:37;96575.81;;;12.61;67.86
74675;BME280;63200;48.810;12.352;2023-04-24T09:04:07;96584.44;;;12.63;66.83
74675;BME280;63200;48.810;12.352;2023-04-24T09:06:32;96574.41;;;11.97;68.80
74675;BME280;63200;48.810;12.352;2023-04-24T09:09:01;96599.63;;;11.89;68.87
74675;BME280;63200;48.810;12.352;2023-04-24T09:11:30;96599.88;;;10.33;62.45
74675;BME280;63200;48.810;12.352;2023-04-24T09:13:56;96619.06;;;9.95;64.95
74675;BME280;63200;48.810;12.352;2023-04-24T09:16:21;96618.47;;;9.84;66.18
74675;BME280;63200;48.810;12.352;2023-04-24T09:18:49;96618.66;;;9.74;66.17
74675;BME280;63200;48.810;12.352;2023-04-24T09:21:14;96617.38;;;9.86;67.25
74675;BME280;63200;48.810;12.352;2023-04-24T09:23:40;96616.97;;;10.06;66.37
74675;BME280;63200;48.810;12.352;2023-04-24T09:26:05;96608.38;;;10.55;65.33
74675;BME280;63200;48.810;12.352;2023-04-24T09:28:34;96620.34;;;10.90;65.80
74675;BME280;63200;48.810;12.352;2023-04-24T09:33:29;96618.31;;;10.96;65.50
74675;BME280;63200;48.810;12.352;2023-04-24T09:35:54;96633.41;;;11.11;64.78
74675;BME280;63200;48.810;12.352;2023-04-24T09:38:34;96627.75;;;10.98;64.38
74675;BME280;63200;48.810;12.352;2023-04-24T09:41:05;96628.56;;;11.53;63.50
74675;BME280;63200;48.810;12.352;2023-04-24T09:43:31;96599.69;;;11.66;61.48
74675;BME280;63200;48.810;12.352;2023-04-24T09:45:58;96628.38;;;11.81;61.86
74675;BME280;63200;48.810;12.352;2023-04-24T09:48:31;96568.38;;;11.77;61.23
74675;BME280;63200;48.810;12.352;2023-04-24T09:50:57;96619.84;;;13.24;57.86
74675;BME280;63200;48.810;12.352;2023-04-24T09:53:28;96610.50;;;13.52;58.97
74675;BME280;63200;48.810;12.352;2023-04-24T09:55:53;96610.91;;;14.91;54.76
74675;BME280;63200;48.810;12.352;2023-04-24T09:58:25;96619.03;;;15.21;53.98
74675;BME280;63200;48.810;12.352;2023-04-24T10:00:55;96615.63;;;14.00;54.75
74675;BME280;63200;48.810;12.352;2023-04-24T10:03:24;96610.44;;;14.38;54.83
74675;BME280;63200;48.810;12.352;2023-04-24T10:05:51;96620.44;;;14.63;54.06
74675;BME280;63200;48.810;12.352;2023-04-24T10:08:16;96609.00;;;14.40;52.39
74675;BME280;63200;48.810;12.352;2023-04-24T10:10:43;96624.53;;;14.19;53.24
74675;BME280;63200;48.810;12.352;2023-04-24T10:13:10;96606.66;;;13.44;54.85
74675;BME280;63200;48.810;12.352;2023-04-24T10:15:37;96631.41;;;13.12;54.82
74675;BME280;63200;48.810;12.352;2023-04-24T10:18:04;96624.50;;;12.97;54.74
74675;BME280;63200;48.810;12.352;2023-04-24T10:20:32;96621.28;;;13.22;54.85
74675;BME280;63200;48.810;12.352;2023-04-24T10:22:58;96620.75;;;13.63;52.06
74675;BME280;63200;48.810;12.352;2023-04-24T10:25:26;96592.97;;;13.70;53.91
74675;BME280;63200;48.810;12.352;2023-04-24T10:27:53;96630.47;;;13.82;52.94
74675;BME280;63200;48.810;12.352;2023-04-24T10:30:22;96635.22;;;13.94;52.33
74675;BME280;63200;48.810;12.352;2023-04-24T10:32:47;96626.75;;;13.39;53.64
74675;BME280;63200;48.810;12.352;2023-04-24T10:35:14;96633.81;;;12.88;53.98
74675;BME280;63200;48.810;12.352;2023-04-24T10:37:46;96639.53;;;12.60;55.00
74675;BME280;63200;48.810;12.352;2023-04-24T10:40:34;96636.34;;;13.10;54.41
74675;BME280;63200;48.810;12.352;2023-04-24T10:43:03;96638.09;;;13.15;54.09
74675;BME280;63200;48.810;12.352;2023-04-24T10:45:31;96641.78;;;13.02;54.26
74675;BME280;63200;48.810;12.352;2023-04-24T10:47:58;96646.56;;;14.13;53.55
74675;BME280;63200;48.810;12.352;2023-04-24T10:50:27;96647.50;;;14.98;51.36
74675;BME280;63200;48.810;12.352;2023-04-24T10:52:53;96633.56;;;15.12;50.14
74675;BME280;63200;48.810;12.352;2023-04-24T10:55:41;96635.25;;;14.83;50.13
74675;BME280;63200;48.810;12.352;2023-04-24T10:58:06;96617.00;;;15.30;51.72
74675;BME280;63200;48.810;12.352;2023-04-24T11:00:31;96630.91;;;15.71;50.82
74675;BME280;63200;48.810;12.352;2023-04-24T11:02:57;96640.50;;;14.08;52.33
74675;BME280;63200;48.810;12.352;2023-04-24T11:05:52;96641.16;;;12.96;53.44
74675;BME280;63200;48.810;12.352;2023-04-24T11:08:26;96635.06;;;12.99;53.52
74675;BME280;63200;48.810;12.352;2023-04-24T11:10:56;96639.88;;;13.37;53.46
74675;BME280;63200;48.810;12.352;2023-04-24T11:13:24;96623.34;;;13.25;53.37
74675;BME280;63200;48.810;12.352;2023-04-24T11:18:42;96649.97;;;13.28;54.73
74675;BME280;63200;48.810;12.352;2023-04-24T11:21:17;96627.53;;;13.31;53.76
74675;BME280;63200;48.810;12.352;2023-04-24T11:23:42;96650.59;;;13.16;55.76
74675;BME280;63200;48.810;12.352;2023-04-24T11:26:18;96609.13;;;12.93;54.35
74675;BME280;63200;48.810;12.352;2023-04-24T11:28:46;96642.53;;;13.72;54.22
74675;BME280;63200;48.810;12.352;2023-04-24T11:34:08;96606.41;;;14.14;53.29
74675;BME280;63200;48.810;12.352;2023-04-24T11:36:35;96635.78;;;14.47;52.50
74675;BME280;63200;48.810;12.352;2023-04-24T11:39:01;96644.25;;;13.86;52.81
74675;BME280;63200;48.810;12.352;2023-04-24T11:41:27;96649.97;;;13.28;54.15
74675;BME280;63200;48.810;12.352;2023-04-24T11:43:54;96617.28;;;12.93;55.62
74675;BME280;63200;48.810;12.352;2023-04-24T11:46:27;96661.41;;;12.28;57.25
74675;BME280;63200;48.810;12.352;2023-04-24T11:48:53;96631.94;;;11.59;58.84
74675;BME280;63200;48.810;12.352;2023-04-24T11:51:18;96679.63;;;10.74;63.45
74675;BME280;63200;48.810;12.352;2023-04-24T11:53:43;96720.75;;;9.65;70.39
74675;BME280;63200;48.810;12.352;2023-04-24T11:56:09;96720.81;;;9.27;68.97
74675;BME280;63200;48.810;12.352;2023-04-24T11:58:35;96674.06;;;8.83;69.65
74675;BME280;63200;48.810;12.352;2023-04-24T12:01:01;96707.66;;;9.01;69.50
74675;BME280;63200;48.810;12.352;2023-04-24T12:03:26;96695.94;;;9.06;69.02
74675;BME280;63200;48.810;12.352;2023-04-24T12:05:52;96691.47;;;9.15;68.73
74675;BME280;63200;48.810;12.352;2023-04-24T12:08:27;96681.81;;;9.42;67.68
74675;BME280;63200;48.810;12.352;2023-04-24T12:10:53;96683.34;;;9.95;68.21
74675;BME280;63200;48.810;12.352;2023-04-24T12:13:18;96693.78;;;10.15;67.41
74675;BME280;63200;48.810;12.352;2023-04-24T12:15:44;96704.84;;;10.19;67.69
74675;BME280;63200;48.810;12.352;2023-04-24T12:18:12;96674.22;;;10.05;66.42
74675;BME280;63200;48.810;12.352;2023-04-24T12:20:38;96699.00;;;10.81;66.69
74675;BME280;63200;48.810;12.352;2023-04-24T12:23:03;96697.72;;;11.38;64.29
74675;BME280;63200;48.810;12.352;2023-04-24T12:25:31;96631.09;;;11.18;63.04
74675;BME280;63200;48.810;12.352;2023-04-24T12:30:29;96686.28;;;11.50;62.30
74675;BME280;63200;48.810;12.352;2023-04-24T12:32:57;96683.09;;;12.69;61.31
74675;BME280;63200;48.810;12.352;2023-04-24T12:35:25;96693.91;;;13.44;59.53
74675;BME280;63200;48.810;12.352;2023-04-24T12:37:50;96649.81;;;13.98;56.12
74675;BME280;63200;48.810;12.352;2023-04-24T12:40:17;96645.75;;;14.43;55.01
74675;BME280;63200;48.810;12.352;2023-04-24T12:42:45;96683.84;;;14.39;54.61
74675;BME280;63200;48.810;12.352;2023-04-24T12:45:10;96682.09;;;14.35;54.56
74675;BME280;63200;48.810;12.352;2023-04-24T12:47:38;96685.84;;;13.74;56.63
74675;BME280;63200;48.810;12.352;2023-04-24T12:50:04;96680.44;;;13.12;57.21
74675;BME280;63200;48.810;12.352;2023-04-24T12:52:30;96636.34;;;12.66;56.74
74675;BME280;63200;48.810;12.352;2023-04-24T12:54:57;96670.34;;;13.39;58.67
74675;BME280;63200;48.810;12.352;2023-04-24T12:57:24;96661.34;;;13.47;58.13
74675;BME280;63200;48.810;12.352;2023-04-24T12:59:53;96663.91;;;13.61;56.84